Time;durP1;ratioP1;P1;durP2;ratioP2;P2;SDS_P1;SDS_P2;PMS_P1;PMS_P2;Temp;Humidity;BMP_temperature;BMP_pressure;BME280_temperature;BME280_humidity;BME280_pressure;Samples;Min_cycle;Max_cycle;Signal;HPM_P1;HPM_P2
2022/07/12 00:01:21;;;;;;;4.97;2.10;;;;;;;;;;5024304;28;20033;-74
2022/07/12 00:03:48;;;;;;;3.75;2.00;;;;;;;;;;5037150;28;20053;-73
2022/07/12 00:06:14;;;;;;;4.72;2.30;;;;;;;;;;5036768;28;20037;-75
2022/07/12 00:08:40;;;;;;;3.72;2.10;;;;;;;;;;5028769;28;20026;-76
2022/07/12 00:11:06;;;;;;;3.10;1.92;;;;;;;;;;5034686;28;20033;-75
2022/07/12 00:13:32;;;;;;;4.13;2.15;;;;;;;;;;5020446;28;20030;-77
2022/07/12 00:15:58;;;;;;;5.95;2.08;;;;;;;;;;5037447;28;20495;-75
2022/07/12 00:18:25;;;;;;;3.92;1.92;;;;;;;;;;5034524;28;20113;-75
2022/07/12 00:20:51;;;;;;;6.53;2.00;;;;;;;;;;5026511;28;20483;-76
2022/07/12 00:23:17;;;;;;;5.40;2.10;;;;;;;;;;5044380;28;20548;-76
2022/07/12 00:25:43;;;;;;;4.78;2.10;;;;;;;;;;5037409;28;20037;-70
2022/07/12 00:28:09;;;;;;;4.70;2.28;;;;;;;;;;5038031;28;20029;-75
2022/07/12 00:30:35;;;;;;;4.05;2.13;;;;;;;;;;5026388;28;20021;-76
2022/07/12 00:33:01;;;;;;;3.78;2.10;;;;;;;;;;5024189;28;20037;-76
2022/07/12 00:35:28;;;;;;;2.90;2.05;;;;;;;;;;5031281;28;20465;-76
2022/07/12 00:37:54;;;;;;;5.18;2.10;;;;;;;;;;5039466;28;20030;-76
2022/07/12 00:40:20;;;;;;;5.60;2.10;;;;;;;;;;5036727;28;20064;-75
2022/07/12 00:42:46;;;;;;;3.58;2.08;;;;;;;;;;5033565;28;20025;-74
2022/07/12 00:45:15;;;;;;;3.78;1.90;;;;;;;;;;5028316;28;20049;-74
2022/07/12 00:47:45;;;;;;;3.35;2.10;;;;;;;;;;5020095;28;20034;-76
2022/07/12 00:50:15;;;;;;;7.25;2.10;;;;;;;;;;5036166;28;20025;-76
2022/07/12 00:52:42;;;;;;;3.75;1.83;;;;;;;;;;5037555;28;20121;-73
2022/07/12 00:55:09;;;;;;;3.85;2.08;;;;;;;;;;5038469;28;20538;-73
2022/07/12 00:57:35;;;;;;;2.20;1.85;;;;;;;;;;5038041;28;20030;-78
2022/07/12 01:00:02;;;;;;;4.45;2.20;;;;;;;;;;5031031;28;20379;-75
2022/07/12 01:02:28;;;;;;;5.95;2.25;;;;;;;;;;5033025;28;20032;-74
2022/07/12 01:04:55;;;;;;;5.85;1.80;;;;;;;;;;5033507;28;20551;-73
2022/07/12 01:07:24;;;;;;;3.60;1.95;;;;;;;;;;5042103;28;20080;-78
2022/07/12 01:09:51;;;;;;;5.75;1.92;;;;;;;;;;5039533;28;20021;-77
2022/07/12 01:12:18;;;;;;;2.80;1.80;;;;;;;;;;5033998;28;20056;-76
2022/07/12 01:14:45;;;;;;;2.75;1.83;;;;;;;;;;5037706;28;20028;-76
2022/07/12 01:17:11;;;;;;;5.82;2.25;;;;;;;;;;5039303;28;20438;-74
2022/07/12 01:19:37;;;;;;;4.85;1.80;;;;;;;;;;5031003;28;20382;-76
2022/07/12 01:22:06;;;;;;;4.10;2.10;;;;;;;;;;5037609;28;20028;-76
2022/07/12 01:24:32;;;;;;;2.60;1.73;;;;;;;;;;5029788;28;20029;-76
2022/07/12 01:26:59;;;;;;;5.35;1.92;;;;;;;;;;5037673;28;20048;-75
2022/07/12 01:29:25;;;;;;;4.72;2.00;;;;;;;;;;5032603;28;20022;-76
2022/07/12 01:31:51;;;;;;;4.82;2.17;;;;;;;;;;5033984;28;20101;-77
2022/07/12 01:34:18;;;;;;;5.90;2.20;;;;;;;;;;5036931;28;20518;-75
2022/07/12 01:36:44;;;;;;;5.57;2.05;;;;;;;;;;5038161;28;20034;-76
2022/07/12 01:39:10;;;;;;;5.00;2.13;;;;;;;;;;5038065;28;20470;-75
2022/07/12 01:41:36;;;;;;;4.07;1.90;;;;;;;;;;5038011;28;20030;-72
2022/07/12 01:44:02;;;;;;;5.22;1.92;;;;;;;;;;5023188;28;20406;-71
2022/07/12 01:46:28;;;;;;;5.75;2.15;;;;;;;;;;5036063;28;20040;-76
2022/07/12 01:48:54;;;;;;;3.53;2.15;;;;;;;;;;5037496;28;20033;-75
2022/07/12 01:51:21;;;;;;;2.40;2.20;;;;;;;;;;5035981;28;20066;-73
2022/07/12 01:53:47;;;;;;;6.07;2.50;;;;;;;;;;5034515;28;20033;-75
2022/07/12 01:56:14;;;;;;;7.15;4.03;;;;;;;;;;5017609;28;20029;-76
2022/07/12 01:58:40;;;;;;;5.90;2.63;;;;;;;;;;5037743;28;20491;-76
2022/07/12 02:01:06;;;;;;;5.88;2.92;;;;;;;;;;5036635;28;20030;-76
2022/07/12 02:03:36;;;;;;;5.00;2.13;;;;;;;;;;5036374;28;20017;-75
2022/07/12 02:06:02;;;;;;;5.22;2.47;;;;;;;;;;5029990;28;20025;-73
2022/07/12 02:08:28;;;;;;;3.65;2.05;;;;;;;;;;5039262;28;20033;-76
2022/07/12 02:10:54;;;;;;;3.95;2.00;;;;;;;;;;5037010;28;20029;-76
2022/07/12 02:13:20;;;;;;;4.82;2.20;;;;;;;;;;5033796;28;20029;-75
2022/07/12 02:15:46;;;;;;;4.50;2.25;;;;;;;;;;5024204;28;20108;-76
2022/07/12 02:18:12;;;;;;;5.03;2.55;;;;;;;;;;5034022;28;20044;-76
2022/07/12 02:20:38;;;;;;;5.15;2.17;;;;;;;;;;5036310;28;20027;-76
2022/07/12 02:23:05;;;;;;;5.55;2.38;;;;;;;;;;5035897;28;20029;-74
2022/07/12 02:25:31;;;;;;;5.75;2.20;;;;;;;;;;5034654;28;20090;-75
2022/07/12 02:27:57;;;;;;;4.80;2.20;;;;;;;;;;5032370;28;20124;-73
2022/07/12 02:30:23;;;;;;;4.93;2.40;;;;;;;;;;5038564;28;20029;-75
2022/07/12 02:32:50;;;;;;;6.18;2.53;;;;;;;;;;5035818;28;20021;-74
2022/07/12 02:35:16;;;;;;;6.35;2.63;;;;;;;;;;5033100;28;20026;-75
2022/07/12 02:37:42;;;;;;;5.57;2.28;;;;;;;;;;5028699;28;20025;-73
2022/07/12 02:42:53;;;;;;;4.55;2.40;;;;;;;;;;5029988;28;20548;-75
2022/07/12 02:45:19;;;;;;;3.22;2.22;;;;;;;;;;5026067;28;20383;-75
2022/07/12 02:47:45;;;;;;;5.13;2.70;;;;;;;;;;5029690;28;20045;-75
2022/07/12 02:50:11;;;;;;;7.43;2.47;;;;;;;;;;5027210;28;20026;-75
2022/07/12 02:52:37;;;;;;;5.15;2.10;;;;;;;;;;5025379;28;20053;-74
2022/07/12 02:55:03;;;;;;;5.65;2.35;;;;;;;;;;5034518;28;20398;-75
2022/07/12 02:57:29;;;;;;;5.07;2.38;;;;;;;;;;5033359;28;20024;-73
2022/07/12 02:59:55;;;;;;;4.88;2.30;;;;;;;;;;5030872;28;20036;-75
2022/07/12 03:02:21;;;;;;;3.83;2.60;;;;;;;;;;5034412;28;20022;-75
2022/07/12 03:04:47;;;;;;;4.22;2.22;;;;;;;;;;5035576;28;20091;-76
2022/07/12 03:07:13;;;;;;;5.07;2.38;;;;;;;;;;5036504;28;20045;-74
2022/07/12 03:09:39;;;;;;;4.50;2.28;;;;;;;;;;5034283;28;20026;-74
2022/07/12 03:12:07;;;;;;;6.95;2.50;;;;;;;;;;5003424;28;20446;-76
2022/07/12 03:14:33;;;;;;;6.43;2.35;;;;;;;;;;5036642;28;20014;-76
2022/07/12 03:16:59;;;;;;;3.92;2.22;;;;;;;;;;5040286;28;20087;-75
2022/07/12 03:19:25;;;;;;;7.93;2.53;;;;;;;;;;5036503;28;20013;-76
2022/07/12 03:21:51;;;;;;;8.05;3.00;;;;;;;;;;5036965;28;20116;-76
2022/07/12 03:24:17;;;;;;;4.32;2.28;;;;;;;;;;5037852;28;20033;-75
2022/07/12 03:26:43;;;;;;;6.68;2.95;;;;;;;;;;5039499;28;20042;-76
2022/07/12 03:29:09;;;;;;;3.58;2.58;;;;;;;;;;5036991;28;20021;-75
2022/07/12 03:31:35;;;;;;;8.00;2.65;;;;;;;;;;5026720;28;20120;-75
2022/07/12 03:34:01;;;;;;;6.80;2.55;;;;;;;;;;5040056;28;20032;-76
2022/07/12 03:36:27;;;;;;;4.60;2.50;;;;;;;;;;5041251;28;20021;-75
2022/07/12 03:38:53;;;;;;;5.10;2.30;;;;;;;;;;5041757;28;20022;-76
2022/07/12 03:41:19;;;;;;;9.27;2.65;;;;;;;;;;5041361;28;20140;-76
2022/07/12 03:43:45;;;;;;;6.97;2.60;;;;;;;;;;5040664;28;20055;-77
2022/07/12 03:46:11;;;;;;;7.68;2.47;;;;;;;;;;5042006;28;20021;-76
2022/07/12 03:48:37;;;;;;;6.05;2.50;;;;;;;;;;5042271;28;20061;-75
2022/07/12 03:51:03;;;;;;;4.28;2.28;;;;;;;;;;5035993;28;20025;-76
2022/07/12 03:53:29;;;;;;;7.70;2.63;;;;;;;;;;5028893;28;20028;-75
2022/07/12 03:55:55;;;;;;;6.43;2.60;;;;;;;;;;5039001;28;20487;-75
2022/07/12 03:58:21;;;;;;;6.47;2.50;;;;;;;;;;5039786;28;20026;-74
2022/07/12 04:00:48;;;;;;;8.00;3.15;;;;;;;;;;5039197;28;20033;-76
2022/07/12 04:03:14;;;;;;;9.13;2.60;;;;;;;;;;5032597;28;20364;-75
2022/07/12 04:05:40;;;;;;;7.72;2.88;;;;;;;;;;5039653;28;20029;-77
2022/07/12 04:08:06;;;;;;;7.82;2.60;;;;;;;;;;5041265;28;20041;-76
2022/07/12 04:10:32;;;;;;;8.18;2.85;;;;;;;;;;5040249;28;20095;-72
2022/07/12 04:12:58;;;;;;;8.38;2.60;;;;;;;;;;5035897;28;20120;-76
2022/07/12 04:15:24;;;;;;;9.43;2.70;;;;;;;;;;5031725;28;20026;-77
2022/07/12 04:17:50;;;;;;;5.88;2.47;;;;;;;;;;5035737;28;20033;-76
2022/07/12 04:20:16;;;;;;;6.72;2.60;;;;;;;;;;5038049;28;20100;-76
2022/07/12 04:22:42;;;;;;;15.60;7.63;;;;;;;;;;5035458;28;20029;-73
2022/07/12 04:25:09;;;;;;;36.63;25.23;;;;;;;;;;5038649;28;20045;-76
2022/07/12 04:27:36;;;;;;;20.35;12.02;;;;;;;;;;5034632;28;20033;-75
2022/07/12 04:30:02;;;;;;;6.55;3.88;;;;;;;;;;5013459;28;20037;-76
2022/07/12 04:32:28;;;;;;;7.45;3.25;;;;;;;;;;5039580;28;20060;-78
2022/07/12 04:34:55;;;;;;;6.25;2.90;;;;;;;;;;5033491;28;20057;-76
2022/07/12 04:37:21;;;;;;;7.35;2.88;;;;;;;;;;5039528;28;20080;-71
2022/07/12 04:39:47;;;;;;;6.13;2.90;;;;;;;;;;5025304;28;20105;-74
2022/07/12 04:42:13;;;;;;;6.85;2.78;;;;;;;;;;5039749;28;20040;-76
2022/07/12 04:44:40;;;;;;;4.63;3.00;;;;;;;;;;5040194;28;20028;-77
2022/07/12 04:47:09;;;;;;;8.15;3.08;;;;;;;;;;5036982;28;20065;-76
2022/07/12 04:49:35;;;;;;;7.10;2.90;;;;;;;;;;5033193;28;20479;-75
2022/07/12 04:52:01;;;;;;;9.10;2.85;;;;;;;;;;5037931;28;20429;-70
2022/07/12 04:54:27;;;;;;;6.70;2.80;;;;;;;;;;5036998;28;20502;-76
2022/07/12 04:56:54;;;;;;;5.35;2.50;;;;;;;;;;5034863;28;20072;-76
2022/07/12 04:59:20;;;;;;;4.90;2.42;;;;;;;;;;5034956;28;20029;-75
2022/07/12 05:01:46;;;;;;;7.70;2.55;;;;;;;;;;5039472;28;20109;-75
2022/07/12 05:04:12;;;;;;;6.82;2.90;;;;;;;;;;5036920;28;20463;-76
2022/07/12 05:06:38;;;;;;;6.80;2.90;;;;;;;;;;5026656;28;20038;-75
2022/07/12 05:22:04;;;;;;;4.78;2.83;;;;;;;;;;5119750;27;20403;-66
2022/07/12 05:24:30;;;;;;;5.63;2.80;;;;;;;;;;5101393;28;20089;-74
2022/07/12 05:26:56;;;;;;;10.77;4.28;;;;;;;;;;5105459;28;20040;-69
2022/07/12 05:29:22;;;;;;;6.18;2.92;;;;;;;;;;5108231;28;20521;-68
2022/07/12 05:31:48;;;;;;;4.95;2.90;;;;;;;;;;5104372;28;20031;-73
2022/07/12 05:34:14;;;;;;;6.57;2.85;;;;;;;;;;5109415;28;20020;-74
2022/07/12 05:36:41;;;;;;;6.43;2.97;;;;;;;;;;5109024;28;20031;-76
2022/07/12 05:39:07;;;;;;;8.10;3.05;;;;;;;;;;5105906;28;20517;-73
2022/07/12 05:41:33;;;;;;;6.47;3.05;;;;;;;;;;5115977;28;20084;-71
2022/07/12 05:43:59;;;;;;;8.35;3.35;;;;;;;;;;5103041;28;20016;-79
2022/07/12 05:46:25;;;;;;;7.80;3.13;;;;;;;;;;5116439;28;20038;-79
2022/07/12 05:48:56;;;;;;;6.40;3.08;;;;;;;;;;5099288;28;20020;-76
2022/07/12 05:54:10;;;;;;;6.75;3.08;;;;;;;;;;5105623;28;20389;-81
2022/07/12 05:56:36;;;;;;;8.60;3.17;;;;;;;;;;5109777;28;20031;-79
2022/07/12 05:59:02;;;;;;;6.47;3.10;;;;;;;;;;5108990;28;20481;-76
2022/07/12 06:01:28;;;;;;;8.13;3.10;;;;;;;;;;5102106;28;20032;-75
2022/07/12 06:03:54;;;;;;;13.63;3.67;;;;;;;;;;5094666;28;20545;-72
2022/07/12 06:06:20;;;;;;;5.78;3.10;;;;;;;;;;5092534;28;20027;-71
2022/07/12 06:08:46;;;;;;;11.20;3.38;;;;;;;;;;5095124;28;20025;-76
2022/07/12 06:11:13;;;;;;;10.07;3.25;;;;;;;;;;5102174;28;20040;-78
2022/07/12 06:13:39;;;;;;;6.40;3.00;;;;;;;;;;5097358;28;20021;-76
2022/07/12 06:16:05;;;;;;;8.43;3.10;;;;;;;;;;5087771;28;20024;-79
2022/07/12 06:18:32;;;;;;;6.00;3.10;;;;;;;;;;5086362;28;20044;-78
2022/07/12 06:20:58;;;;;;;7.57;3.08;;;;;;;;;;5084168;28;20048;-76
2022/07/12 06:23:24;;;;;;;11.05;3.10;;;;;;;;;;5079654;28;20036;-78
2022/07/12 06:25:50;;;;;;;9.27;3.80;;;;;;;;;;5074653;28;20024;-74
2022/07/12 06:28:16;;;;;;;12.77;3.60;;;;;;;;;;5072287;28;20083;-72
2022/07/12 06:30:42;;;;;;;8.50;3.72;;;;;;;;;;5072744;28;20048;-71
2022/07/12 06:33:08;;;;;;;9.48;3.15;;;;;;;;;;5072040;28;20024;-74
2022/07/12 06:35:35;;;;;;;7.10;3.10;;;;;;;;;;5069241;28;20120;-74
2022/07/12 06:38:01;;;;;;;9.15;3.50;;;;;;;;;;5071598;28;20070;-77
2022/07/12 06:40:27;;;;;;;7.65;3.13;;;;;;;;;;5073811;28;20398;-76
2022/07/12 06:42:53;;;;;;;8.20;3.42;;;;;;;;;;5072925;28;20025;-78
2022/07/12 06:45:19;;;;;;;9.25;3.38;;;;;;;;;;5073192;28;20077;-73
2022/07/12 06:47:45;;;;;;;7.93;3.55;;;;;;;;;;5072552;28;20033;-74
2022/07/12 06:50:11;;;;;;;7.35;3.28;;;;;;;;;;5072382;28;20028;-75
2022/07/12 06:52:37;;;;;;;10.48;4.22;;;;;;;;;;5071254;28;20039;-71
2022/07/12 06:55:04;;;;;;;7.40;3.30;;;;;;;;;;5071941;28;20021;-68
2022/07/12 06:57:30;;;;;;;7.47;3.22;;;;;;;;;;5070144;28;20044;-69
2022/07/12 06:59:56;;;;;;;5.38;3.28;;;;;;;;;;5077225;28;20046;-71
2022/07/12 07:02:22;;;;;;;11.65;3.30;;;;;;;;;;5071178;28;20036;-77
2022/07/12 07:04:49;;;;;;;7.55;3.00;;;;;;;;;;5072737;28;20033;-73
2022/07/12 07:07:15;;;;;;;10.55;3.53;;;;;;;;;;5068810;28;20039;-75
2022/07/12 07:09:41;;;;;;;6.45;2.85;;;;;;;;;;5072691;28;20084;-71
2022/07/12 07:12:07;;;;;;;8.23;3.72;;;;;;;;;;5070539;28;20029;-72
2022/07/12 07:14:34;;;;;;;6.38;3.10;;;;;;;;;;5069024;28;20024;-72
2022/07/12 07:17:00;;;;;;;6.78;3.22;;;;;;;;;;5071856;28;20478;-75
2022/07/12 07:19:26;;;;;;;9.50;3.38;;;;;;;;;;5069020;28;20078;-72
2022/07/12 07:21:54;;;;;;;7.40;2.88;;;;;;;;;;5071294;28;20474;-70
2022/07/12 07:24:20;;;;;;;10.18;3.38;;;;;;;;;;5069717;28;20141;-76
2022/07/12 07:26:47;;;;;;;6.75;3.15;;;;;;;;;;5070238;28;20025;-73
2022/07/12 07:30:52;;;;;;;7.15;2.90;;;;;;;;;;5079622;28;20020;-73
2022/07/12 07:32:17;;;;;;;4.93;3.30;;;;;;;;;;5072333;28;20589;-74
2022/07/12 07:34:43;;;;;;;6.75;3.15;;;;;;;;;;5066521;28;20395;-73
2022/07/12 07:37:10;;;;;;;5.18;3.15;;;;;;;;;;5071398;28;20046;-77
2022/07/12 07:39:36;;;;;;;39.10;5.60;;;;;;;;;;5069493;28;20094;-72
2022/07/12 07:42:02;;;;;;;21.17;4.18;;;;;;;;;;5071674;28;20055;-72
2022/07/12 07:44:28;;;;;;;8.82;3.60;;;;;;;;;;5072549;28;20440;-72
2022/07/12 07:46:54;;;;;;;6.20;2.88;;;;;;;;;;5070646;28;20071;-72
2022/07/12 07:49:21;;;;;;;5.50;2.95;;;;;;;;;;5071776;28;20470;-73
2022/07/12 07:51:47;;;;;;;4.95;2.80;;;;;;;;;;5073363;28;20028;-73
2022/07/12 07:54:16;;;;;;;4.38;2.60;;;;;;;;;;5069546;28;20096;-75
2022/07/12 07:56:42;;;;;;;5.82;2.75;;;;;;;;;;5072586;28;20111;-75
2022/07/12 07:59:08;;;;;;;5.85;2.60;;;;;;;;;;5073116;28;20107;-75
2022/07/12 08:01:48;;;;;;;8.38;2.75;;;;;;;;;;5070296;28;20048;-73
2022/07/12 08:04:14;;;;;;;6.93;4.07;;;;;;;;;;5069261;28;20032;-73
2022/07/12 08:06:41;;;;;;;7.72;3.10;;;;;;;;;;5068313;28;20063;-71
2022/07/12 08:09:08;;;;;;;7.28;2.33;;;;;;;;;;5071161;28;20031;-73
2022/07/12 08:11:34;;;;;;;8.30;2.80;;;;;;;;;;5064653;28;20028;-72
2022/07/12 08:14:00;;;;;;;9.90;3.67;;;;;;;;;;5083541;28;20029;-71
2022/07/12 08:16:26;;;;;;;5.85;2.20;;;;;;;;;;5067615;28;20028;-71
2022/07/12 08:18:53;;;;;;;8.23;3.40;;;;;;;;;;5072657;28;20033;-72
2022/07/12 08:21:19;;;;;;;4.40;2.03;;;;;;;;;;5072813;28;20445;-72
2022/07/12 08:23:45;;;;;;;4.50;2.30;;;;;;;;;;5071511;28;20021;-80
2022/07/12 08:26:11;;;;;;;8.68;3.17;;;;;;;;;;5068854;28;20490;-75
2022/07/12 08:28:37;;;;;;;5.10;2.40;;;;;;;;;;5071464;28;20028;-77
2022/07/12 08:31:03;;;;;;;6.05;2.67;;;;;;;;;;5071266;28;20048;-79
2022/07/12 08:33:29;;;;;;;5.95;3.22;;;;;;;;;;5071298;28;20027;-75
2022/07/12 08:35:55;;;;;;;11.38;3.25;;;;;;;;;;5070875;28;20151;-76
2022/07/12 08:38:22;;;;;;;5.35;2.97;;;;;;;;;;5069139;28;20067;-72
2022/07/12 08:40:48;;;;;;;5.13;2.20;;;;;;;;;;5071203;28;20036;-72
2022/07/12 08:43:14;;;;;;;8.82;4.55;;;;;;;;;;5070871;28;20021;-70
2022/07/12 08:45:40;;;;;;;9.70;3.17;;;;;;;;;;5070891;28;20109;-70
2022/07/12 08:48:07;;;;;;;4.93;2.22;;;;;;;;;;5068816;28;20021;-72
2022/07/12 08:50:33;;;;;;;9.70;2.30;;;;;;;;;;5072489;28;20063;-72
2022/07/12 08:52:59;;;;;;;6.38;2.30;;;;;;;;;;5066760;28;20400;-71
2022/07/12 08:55:28;;;;;;;13.25;2.55;;;;;;;;;;5069772;28;20033;-71
2022/07/12 08:57:55;;;;;;;5.15;1.98;;;;;;;;;;5070782;28;20479;-71
2022/07/12 09:00:22;;;;;;;5.68;2.00;;;;;;;;;;5069926;28;20032;-70
2022/07/12 09:02:48;;;;;;;6.50;2.28;;;;;;;;;;5070446;28;20028;-72
2022/07/12 09:05:15;;;;;;;5.40;1.98;;;;;;;;;;5069970;28;20085;-74
2022/07/12 09:07:41;;;;;;;5.70;2.25;;;;;;;;;;5068527;28;20090;-75
2022/07/12 09:10:08;;;;;;;6.80;2.00;;;;;;;;;;5070811;28;20526;-78
2022/07/12 09:12:35;;;;;;;7.40;2.20;;;;;;;;;;5068164;28;20116;-77
2022/07/12 09:15:13;;;;;;;8.00;2.58;;;;;;;;;;5069097;28;20029;-80
2022/07/12 09:17:40;;;;;;;5.70;2.03;;;;;;;;;;5070272;28;20512;-73
2022/07/12 09:20:10;;;;;;;5.45;2.00;;;;;;;;;;5067018;28;20055;-71
2022/07/12 09:22:36;;;;;;;7.18;2.28;;;;;;;;;;5068648;28;20107;-72
2022/07/12 09:25:20;;;;;;;7.50;1.98;;;;;;;;;;5071239;28;20025;-69
2022/07/12 09:27:51;;;;;;;5.05;2.00;;;;;;;;;;5061839;28;20431;-69
2022/07/12 09:30:17;;;;;;;6.18;2.17;;;;;;;;;;5069460;28;20032;-71
2022/07/12 09:38:20;;;;;;;4.05;1.95;;;;;;;;;;5070432;28;20063;-68
2022/07/12 09:40:47;;;;;;;5.78;2.13;;;;;;;;;;5071760;28;20116;-69
2022/07/12 09:43:14;;;;;;;5.20;2.38;;;;;;;;;;5071735;28;20086;-69
2022/07/12 09:45:41;;;;;;;5.95;2.45;;;;;;;;;;5069332;28;20029;-69
2022/07/12 09:48:09;;;;;;;2.97;1.90;;;;;;;;;;5069503;28;20520;-72
2022/07/12 09:50:35;;;;;;;5.55;1.83;;;;;;;;;;5070439;28;20466;-73
2022/07/12 09:53:03;;;;;;;5.78;2.10;;;;;;;;;;5070039;28;20082;-72
2022/07/12 09:55:38;;;;;;;5.72;2.20;;;;;;;;;;5069270;28;20036;-69
2022/07/12 09:58:05;;;;;;;6.95;2.30;;;;;;;;;;5074393;28;20036;-70
2022/07/12 10:00:31;;;;;;;4.00;1.90;;;;;;;;;;5073825;28;20371;-70
2022/07/12 10:02:59;;;;;;;2.92;1.80;;;;;;;;;;5072587;28;20024;-69
2022/07/12 10:05:25;;;;;;;4.63;1.92;;;;;;;;;;5073256;28;20029;-70
2022/07/12 10:07:52;;;;;;;3.17;2.00;;;;;;;;;;5072960;28;20074;-70
2022/07/12 10:10:30;;;;;;;13.45;2.08;;;;;;;;;;5071807;28;20029;-70
2022/07/12 10:12:56;;;;;;;9.10;2.00;;;;;;;;;;5062783;28;20504;-70
2022/07/12 10:15:26;;;;;;;7.68;1.90;;;;;;;;;;5073444;28;20052;-71
2022/07/12 10:17:58;;;;;;;6.60;1.85;;;;;;;;;;5069962;28;20055;-70
2022/07/12 10:20:26;;;;;;;5.03;2.22;;;;;;;;;;5070050;28;20121;-69
2022/07/12 10:23:11;;;;;;;4.88;1.80;;;;;;;;;;5071607;28;20040;-71
2022/07/12 10:25:37;;;;;;;2.53;1.75;;;;;;;;;;5067597;28;20044;-70
2022/07/12 10:28:03;;;;;;;3.03;1.60;;;;;;;;;;5071788;28;20024;-70
2022/07/12 10:30:30;;;;;;;4.47;2.28;;;;;;;;;;5071112;28;20024;-71
2022/07/12 10:33:00;;;;;;;6.13;1.98;;;;;;;;;;5071000;28;20409;-70
2022/07/12 10:35:30;;;;;;;4.13;1.85;;;;;;;;;;5071397;28;20028;-70
2022/07/12 10:38:11;;;;;;;7.18;2.03;;;;;;;;;;5072920;28;20115;-69
2022/07/12 10:40:38;;;;;;;6.57;2.42;;;;;;;;;;5071527;28;20067;-69
2022/07/12 10:43:04;;;;;;;2.45;1.60;;;;;;;;;;5066552;28;20389;-71
2022/07/12 10:45:38;;;;;;;19.02;3.08;;;;;;;;;;5070145;28;20021;-68
2022/07/12 10:48:06;;;;;;;3.00;1.88;;;;;;;;;;5072240;28;20025;-71
2022/07/12 10:50:42;;;;;;;7.50;2.33;;;;;;;;;;5071577;28;20032;-71
2022/07/12 10:53:23;;;;;;;7.28;2.30;;;;;;;;;;5069967;28;20032;-71
2022/07/12 10:56:15;;;;;;;4.57;1.88;;;;;;;;;;5073010;28;20032;-72
2022/07/12 10:58:43;;;;;;;2.80;1.67;;;;;;;;;;5007256;28;20062;-70
2022/07/12 11:01:14;;;;;;;4.65;1.92;;;;;;;;;;5013306;28;20049;-71
2022/07/12 11:03:45;;;;;;;4.45;2.00;;;;;;;;;;5010301;28;20053;-70
2022/07/12 11:06:15;;;;;;;4.00;1.83;;;;;;;;;;5010895;28;20031;-71
2022/07/12 11:08:50;;;;;;;4.65;1.88;;;;;;;;;;5010970;28;20046;-73
2022/07/12 11:11:16;;;;;;;4.18;2.42;;;;;;;;;;5009791;28;20033;-76
2022/07/12 11:13:42;;;;;;;14.60;3.03;;;;;;;;;;5018246;28;20049;-71
2022/07/12 11:16:08;;;;;;;6.88;2.00;;;;;;;;;;5013392;28;20061;-72
2022/07/12 11:18:36;;;;;;;10.57;2.00;;;;;;;;;;5012086;28;20084;-71
2022/07/12 11:21:02;;;;;;;6.32;1.90;;;;;;;;;;5001282;28;20464;-70
2022/07/12 11:23:29;;;;;;;6.55;1.92;;;;;;;;;;5010488;28;20034;-72
2022/07/12 11:26:00;;;;;;;6.05;2.33;;;;;;;;;;5012256;28;20033;-71
2022/07/12 11:28:30;;;;;;;5.72;2.10;;;;;;;;;;5011105;28;20076;-71
2022/07/12 11:31:22;;;;;;;5.63;1.92;;;;;;;;;;5010417;28;20400;-71
2022/07/12 11:33:50;;;;;;;5.90;1.88;;;;;;;;;;5004373;28;20550;-72
2022/07/12 11:36:17;;;;;;;2.95;1.70;;;;;;;;;;5059561;28;20036;-72
2022/07/12 11:38:44;;;;;;;5.20;2.10;;;;;;;;;;5073452;28;20016;-72
2022/07/12 11:41:11;;;;;;;7.22;2.35;;;;;;;;;;5073715;28;20089;-72
2022/07/12 11:43:38;;;;;;;11.57;1.90;;;;;;;;;;5069415;28;20478;-72
2022/07/12 11:46:05;;;;;;;3.78;1.90;;;;;;;;;;5073598;28;20055;-72
2022/07/12 11:48:34;;;;;;;5.53;3.40;;;;;;;;;;5073273;28;20033;-72
2022/07/12 11:51:04;;;;;;;5.22;2.20;;;;;;;;;;5073165;28;20031;-71
2022/07/12 11:53:30;;;;;;;6.15;2.25;;;;;;;;;;5073150;28;20035;-71
2022/07/12 11:55:57;;;;;;;3.70;1.73;;;;;;;;;;5076910;28;20489;-72
2022/07/12 11:58:24;;;;;;;3.35;1.77;;;;;;;;;;5080239;28;20029;-71
2022/07/12 12:00:50;;;;;;;7.40;2.05;;;;;;;;;;5072586;28;20042;-72
2022/07/12 12:03:17;;;;;;;3.95;2.00;;;;;;;;;;5073149;28;20024;-71
2022/07/12 12:05:44;;;;;;;5.40;1.90;;;;;;;;;;5069774;28;20024;-72
2022/07/12 12:08:12;;;;;;;3.55;2.00;;;;;;;;;;5070063;28;20391;-72
2022/07/12 12:10:38;;;;;;;4.38;1.80;;;;;;;;;;5070888;28;20035;-71
2022/07/12 12:13:04;;;;;;;6.38;1.90;;;;;;;;;;5070942;28;20028;-74
2022/07/12 12:15:32;;;;;;;5.47;1.88;;;;;;;;;;5070075;28;20026;-77
2022/07/12 12:17:59;;;;;;;4.22;1.55;;;;;;;;;;5072328;28;20103;-83
2022/07/12 12:20:29;;;;;;;4.28;1.90;;;;;;;;;;5071193;28;20076;-81
2022/07/12 12:22:56;;;;;;;9.75;1.83;;;;;;;;;;5072340;28;20541;-78
2022/07/12 12:25:23;;;;;;;4.35;1.60;;;;;;;;;;5070550;28;20058;-77
2022/07/12 12:28:03;;;;;;;2.53;1.63;;;;;;;;;;5068996;28;20029;-80
2022/07/12 12:33:34;;;;;;;4.20;1.90;;;;;;;;;;5068292;28;20048;-72
2022/07/12 12:36:11;;;;;;;5.15;2.17;;;;;;;;;;5071618;28;20024;-71
2022/07/12 12:38:37;;;;;;;6.25;1.90;;;;;;;;;;5067803;28;20025;-71
2022/07/12 12:41:03;;;;;;;2.88;1.48;;;;;;;;;;5070357;28;20040;-69
2022/07/12 12:43:34;;;;;;;1.58;1.42;;;;;;;;;;5070391;28;20026;-70
2022/07/12 12:46:00;;;;;;;5.47;1.45;;;;;;;;;;5066851;28;20032;-71
2022/07/12 12:48:36;;;;;;;5.20;1.70;;;;;;;;;;5071408;28;20465;-70
2022/07/12 12:51:27;;;;;;;5.40;1.90;;;;;;;;;;5084550;28;20098;-71
2022/07/12 12:54:04;;;;;;;6.10;1.90;;;;;;;;;;5065767;28;20123;-71
2022/07/12 12:56:32;;;;;;;5.45;2.17;;;;;;;;;;5062481;28;20025;-69
2022/07/12 12:58:58;;;;;;;4.63;2.00;;;;;;;;;;5075096;28;20561;-70
2022/07/12 13:01:24;;;;;;;6.07;1.67;;;;;;;;;;5070370;28;20094;-69
2022/07/12 13:03:51;;;;;;;2.72;1.70;;;;;;;;;;5070188;28;20028;-72
2022/07/12 13:06:17;;;;;;;3.72;2.15;;;;;;;;;;5072071;28;20420;-71
2022/07/12 13:08:43;;;;;;;7.18;1.90;;;;;;;;;;5067687;28;20390;-68
2022/07/12 13:11:19;;;;;;;3.55;1.75;;;;;;;;;;5067328;28;20016;-70
2022/07/12 13:13:46;;;;;;;3.30;1.98;;;;;;;;;;5068729;28;20615;-70
2022/07/12 13:16:12;;;;;;;5.53;1.98;;;;;;;;;;5069554;28;20474;-69
2022/07/12 13:18:38;;;;;;;15.38;2.55;;;;;;;;;;5067822;28;20040;-71
2022/07/12 13:21:04;;;;;;;6.72;1.90;;;;;;;;;;5071996;28;20045;-72
2022/07/12 13:23:30;;;;;;;8.10;2.10;;;;;;;;;;5060663;28;20024;-75
2022/07/12 13:25:56;;;;;;;4.07;2.20;;;;;;;;;;5067892;28;20051;-70
2022/07/12 13:28:23;;;;;;;9.75;3.90;;;;;;;;;;5068245;28;20025;-69
2022/07/12 13:30:49;;;;;;;11.55;3.42;;;;;;;;;;5066851;28;20035;-71
2022/07/12 13:33:16;;;;;;;5.47;1.77;;;;;;;;;;5070767;28;20368;-68
2022/07/12 13:35:42;;;;;;;5.50;1.85;;;;;;;;;;5072648;28;20040;-68
2022/07/12 13:38:08;;;;;;;4.47;1.75;;;;;;;;;;5071419;28;20024;-68
2022/07/12 13:40:35;;;;;;;5.35;1.70;;;;;;;;;;5074752;28;20111;-69
2022/07/12 13:43:01;;;;;;;5.57;2.10;;;;;;;;;;5076120;28;20489;-68
2022/07/12 13:45:28;;;;;;;4.43;2.10;;;;;;;;;;5074786;28;20439;-69
2022/07/12 13:47:54;;;;;;;4.47;2.38;;;;;;;;;;5071462;28;20013;-71
2022/07/12 13:50:22;;;;;;;2.60;1.80;;;;;;;;;;5073586;28;20028;-75
2022/07/12 13:52:48;;;;;;;9.10;1.95;;;;;;;;;;5075332;28;20082;-73
2022/07/12 13:55:15;;;;;;;7.75;2.00;;;;;;;;;;5077222;28;20437;-73
2022/07/12 13:57:41;;;;;;;2.38;1.65;;;;;;;;;;5074460;28;20028;-77
2022/07/12 14:00:11;;;;;;;2.63;1.90;;;;;;;;;;5074979;28;20036;-70
2022/07/12 14:02:37;;;;;;;4.25;1.90;;;;;;;;;;5074967;28;20127;-70
2022/07/12 14:05:09;;;;;;;3.65;1.60;;;;;;;;;;5074307;28;20502;-69
2022/07/12 14:07:36;;;;;;;9.25;2.00;;;;;;;;;;5073478;28;20066;-73
2022/07/12 14:10:03;;;;;;;4.88;2.30;;;;;;;;;;5072145;28;20047;-76
2022/07/12 14:12:29;;;;;;;5.82;1.83;;;;;;;;;;5073763;28;20032;-72
2022/07/12 14:17:40;;;;;;;4.72;2.25;;;;;;;;;;5066226;28;20044;-70
2022/07/12 14:20:07;;;;;;;5.47;2.13;;;;;;;;;;5074231;28;20045;-71
2022/07/12 14:22:33;;;;;;;5.05;2.10;;;;;;;;;;5075243;28;20029;-73
2022/07/12 14:25:02;;;;;;;3.20;1.90;;;;;;;;;;5074797;28;20020;-69
2022/07/12 14:27:28;;;;;;;4.55;2.05;;;;;;;;;;5074017;28;20634;-72
2022/07/12 14:29:54;;;;;;;7.15;2.20;;;;;;;;;;5069473;28;20491;-74
2022/07/12 14:32:20;;;;;;;12.90;2.20;;;;;;;;;;5064528;28;20024;-74
2022/07/12 14:34:46;;;;;;;4.60;1.80;;;;;;;;;;5072940;28;20028;-82
2022/07/12 14:37:12;;;;;;;5.03;1.80;;;;;;;;;;5070016;28;20322;-73
2022/07/12 14:39:39;;;;;;;7.97;1.92;;;;;;;;;;5071297;28;20024;-77
2022/07/12 14:42:06;;;;;;;4.88;1.80;;;;;;;;;;5071550;28;20085;-78
2022/07/12 14:44:32;;;;;;;6.13;1.80;;;;;;;;;;5071355;28;20021;-79
2022/07/12 14:46:58;;;;;;;5.18;2.00;;;;;;;;;;5070857;28;20501;-81
2022/07/12 14:49:24;;;;;;;4.38;1.85;;;;;;;;;;5069051;28;20036;-70
2022/07/12 14:51:51;;;;;;;7.45;2.10;;;;;;;;;;5071688;28;20024;-72
2022/07/12 14:54:17;;;;;;;7.18;1.88;;;;;;;;;;5071815;28;20028;-72
2022/07/12 14:56:43;;;;;;;9.93;1.83;;;;;;;;;;5072658;28;20056;-73
2022/07/12 14:59:09;;;;;;;8.65;2.00;;;;;;;;;;5070717;28;20033;-73
2022/07/12 15:01:35;;;;;;;3.28;1.83;;;;;;;;;;5072201;28;20064;-71
2022/07/12 15:04:01;;;;;;;3.88;1.92;;;;;;;;;;5073319;28;20082;-78
2022/07/12 15:06:27;;;;;;;9.32;2.30;;;;;;;;;;5070876;28;20083;-73
2022/07/12 15:08:54;;;;;;;5.35;2.10;;;;;;;;;;5070197;28;20133;-74
2022/07/12 15:11:20;;;;;;;4.10;2.03;;;;;;;;;;5062664;28;20029;-81
2022/07/12 15:13:46;;;;;;;4.82;2.20;;;;;;;;;;5068038;28;20536;-77